Time;durP1;ratioP1;P1;durP2;ratioP2;P2;SDS_P1;SDS_P2;PMS_P1;PMS_P2;Temp;Humidity;BMP_temperature;BMP_pressure;BME280_temperature;BME280_humidity;BME280_pressure;Samples;Min_cycle;Max_cycle;Signal;HPM_P1;HPM_P2
2022/08/07 04:02:29;;;;;;;10.35;9.35;;;11.60;99.90;;;;;;4970530;23;20309;-68
2022/08/07 04:04:56;;;;;;;11.15;9.13;;;11.60;99.90;;;;;;4914953;29;20673;-68
2022/08/07 04:07:23;;;;;;;9.80;8.55;;;11.60;99.90;;;;;;4914176;29;20247;-68
2022/08/07 04:09:51;;;;;;;11.02;7.47;;;11.60;99.90;;;;;;4915259;29;20240;-68
2022/08/07 04:12:18;;;;;;;11.82;9.68;;;11.60;99.90;;;;;;4914234;29;20246;-68
2022/08/07 04:14:46;;;;;;;11.80;9.07;;;11.50;99.90;;;;;;4915301;29;20234;-68
2022/08/07 04:17:12;;;;;;;8.80;8.00;;;11.60;99.90;;;;;;4914379;23;20324;-72
2022/08/07 04:19:42;;;;;;;8.57;7.68;;;11.60;99.90;;;;;;4888742;29;20528;-71
2022/08/07 04:22:10;;;;;;;10.07;9.00;;;11.60;99.90;;;;;;4892738;29;20213;-72
2022/08/07 04:24:37;;;;;;;9.55;7.82;;;11.60;99.90;;;;;;4895969;29;20343;-72
2022/08/07 04:27:04;;;;;;;10.23;8.88;;;11.60;99.90;;;;;;4894880;29;20606;-73
2022/08/07 04:29:31;;;;;;;10.30;8.25;;;11.60;99.90;;;;;;4895324;29;20212;-72
2022/08/07 04:31:58;;;;;;;9.07;8.20;;;11.60;99.90;;;;;;4894193;29;20220;-72
2022/08/07 04:34:26;;;;;;;9.55;8.70;;;11.60;99.90;;;;;;4895920;29;20230;-73
2022/08/07 04:36:54;;;;;;;9.05;7.82;;;11.60;99.90;;;;;;4890402;29;20249;-72
2022/08/07 04:39:20;;;;;;;8.45;7.57;;;11.60;99.90;;;;;;4895668;29;20227;-71
2022/08/07 04:41:47;;;;;;;12.00;7.93;;;11.60;99.90;;;;;;4893326;29;20241;-72
2022/08/07 04:44:15;;;;;;;9.85;9.15;;;11.80;99.90;;;;;;4896019;29;20209;-73
2022/08/07 04:46:47;;;;;;;8.55;7.85;;;12.30;99.90;;;;;;4893844;29;20236;-73
2022/08/07 04:49:20;;;;;;;6.77;6.17;;;12.90;99.90;;;;;;4892545;29;20305;-73
2022/08/07 04:51:55;;;;;;;7.80;7.20;;;13.70;99.90;;;;;;4885262;29;20476;-72
2022/08/07 04:54:31;;;;;;;7.03;6.60;;;14.40;99.90;;;;;;4894590;29;20475;-73
2022/08/07 04:57:04;;;;;;;9.10;8.30;;;15.00;99.90;;;;;;4892913;29;20579;-73
2022/08/07 04:59:36;;;;;;;7.87;7.27;;;15.30;99.90;;;;;;4894209;29;20648;-72
2022/08/07 05:02:09;;;;;;;7.83;7.23;;;15.60;99.90;;;;;;4893679;29;20558;-73
2022/08/07 05:04:41;;;;;;;7.97;7.37;;;15.80;99.90;;;;;;4894943;29;20542;-72
2022/08/07 05:07:16;;;;;;;8.70;8.00;;;16.10;99.90;;;;;;4891549;29;20503;-72
2022/08/07 05:09:55;;;;;;;8.33;7.63;;;16.70;99.90;;;;;;4887864;29;20472;-71
2022/08/07 05:12:29;;;;;;;8.23;7.53;;;16.80;99.90;;;;;;4890583;29;20476;-71
2022/08/07 05:15:15;;;;;;;7.63;7.00;;;16.50;99.90;;;;;;4890657;29;20964;-72
2022/08/07 05:17:44;;;;;;;8.00;7.33;;;16.10;99.90;;;;;;4892133;29;20494;-73
2022/08/07 05:20:13;;;;;;;8.53;7.83;;;15.80;99.90;;;;;;4894331;29;20474;-73
2022/08/07 05:22:42;;;;;;;7.83;7.23;;;15.50;99.90;;;;;;4890513;29;20887;-72
2022/08/07 05:25:13;;;;;;;9.43;8.50;;;15.40;99.90;;;;;;4890827;29;20479;-73
2022/08/07 05:27:42;;;;;;;8.40;7.60;;;15.10;99.90;;;;;;4886387;29;20974;-72
2022/08/07 05:30:10;;;;;;;8.37;7.77;;;14.90;99.90;;;;;;4893847;29;20477;-73
2022/08/07 05:32:39;;;;;;;9.33;8.13;;;14.80;99.90;;;;;;4893850;29;20482;-73
2022/08/07 05:35:08;;;;;;;8.77;8.03;;;14.70;99.90;;;;;;4894104;29;20592;-72
2022/08/07 05:37:35;;;;;;;9.60;8.87;;;14.60;99.90;;;;;;4894052;29;20495;-72
2022/08/07 05:40:03;;;;;;;9.93;9.03;;;14.60;99.90;;;;;;4892936;29;20504;-73
2022/08/07 05:42:31;;;;;;;8.87;8.10;;;14.50;99.90;;;;;;4893286;29;20479;-73
2022/08/07 05:44:59;;;;;;;9.57;8.67;;;14.50;99.90;;;;;;4893452;29;21033;-73
2022/08/07 05:47:26;;;;;;;8.90;7.53;;;14.40;99.90;;;;;;4893075;29;20492;-73
2022/08/07 05:49:54;;;;;;;9.07;8.23;;;14.40;99.90;;;;;;4893441;29;20477;-72
2022/08/07 05:52:21;;;;;;;9.30;8.50;;;14.40;99.90;;;;;;4888684;29;20478;-71
2022/08/07 05:54:48;;;;;;;8.30;7.50;;;14.40;99.90;;;;;;4893256;29;20983;-73
2022/08/07 05:57:16;;;;;;;9.50;8.60;;;14.40;99.90;;;;;;4889401;29;20588;-72
2022/08/07 05:59:46;;;;;;;9.30;8.57;;;14.40;99.90;;;;;;4894370;29;20478;-73
2022/08/07 06:02:15;;;;;;;9.50;8.40;;;14.40;99.90;;;;;;4889216;29;20564;-72
2022/08/07 06:04:48;;;;;;;8.53;7.67;;;14.40;99.90;;;;;;4886668;29;20481;-73
2022/08/07 06:07:15;;;;;;;8.63;7.90;;;14.40;99.90;;;;;;4894439;29;21008;-73
2022/08/07 06:09:42;;;;;;;7.33;6.83;;;14.50;99.90;;;;;;4896176;29;20975;-72
2022/08/07 06:12:09;;;;;;;7.20;6.53;;;14.90;99.90;;;;;;4895424;29;20846;-72
2022/08/07 06:14:36;;;;;;;7.33;6.70;;;15.90;99.90;;;;;;4897639;29;20538;-73
2022/08/07 06:17:07;;;;;;;6.50;6.00;;;16.90;99.90;;;;;;4894727;29;20513;-73
2022/08/07 06:19:34;;;;;;;6.47;5.97;;;17.90;99.90;;;;;;4894001;29;20560;-71
2022/08/07 06:22:02;;;;;;;5.73;5.43;;;18.70;99.90;;;;;;4892477;29;20491;-71
2022/08/07 06:24:29;;;;;;;5.37;5.07;;;19.30;99.90;;;;;;4896746;29;20498;-71
2022/08/07 06:26:56;;;;;;;7.20;6.67;;;20.00;99.90;;;;;;4894897;29;20487;-71
2022/08/07 06:29:27;;;;;;;5.33;5.03;;;20.50;99.90;;;;;;4891142;29;20535;-71
2022/08/07 06:31:53;;;;;;;5.90;5.70;;;21.00;99.90;;;;;;4893591;29;20626;-71
2022/08/07 06:34:23;;;;;;;5.37;5.10;;;21.50;99.90;;;;;;4894371;29;20951;-71
2022/08/07 06:36:50;;;;;;;5.80;4.60;;;22.00;99.90;;;;;;4896197;29;20570;-71
2022/08/07 06:39:17;;;;;;;4.70;4.50;;;22.60;99.90;;;;;;4895043;29;20470;-71
2022/08/07 06:41:48;;;;;;;4.40;4.20;;;22.90;99.90;;;;;;4895654;29;20477;-70
2022/08/07 06:44:15;;;;;;;3.77;3.57;;;23.20;99.90;;;;;;4892516;29;20471;-68
2022/08/07 06:46:42;;;;;;;4.00;3.90;;;23.20;99.90;;;;;;4893525;29;20503;-70
2022/08/07 06:49:09;;;;;;;3.60;3.40;;;23.10;99.90;;;;;;4892024;29;20547;-71
2022/08/07 06:51:40;;;;;;;3.23;3.10;;;23.30;99.90;;;;;;4893424;29;20482;-69
2022/08/07 06:54:08;;;;;;;3.63;3.53;;;23.70;99.90;;;;;;4891561;29;20475;-70
2022/08/07 06:56:39;;;;;;;3.10;3.00;;;23.80;99.90;;;;;;4894112;29;20907;-70
2022/08/07 06:59:08;;;;;;;2.43;2.43;;;24.30;99.90;;;;;;4894261;29;20467;-71
2022/08/07 07:01:37;;;;;;;2.87;2.77;;;24.30;99.90;;;;;;4897958;29;20883;-70
2022/08/07 07:04:05;;;;;;;3.57;3.40;;;24.10;99.90;;;;;;4896087;29;20476;-70
2022/08/07 07:06:32;;;;;;;3.63;3.33;;;24.40;99.90;;;;;;4892819;29;20497;-71
2022/08/07 07:09:18;;;;;;;2.77;2.67;;;24.60;99.90;;;;;;4893910;29;20494;-73
2022/08/07 07:11:54;;;;;;;2.83;2.83;;;25.10;99.00;;;;;;4890791;29;20861;-72
2022/08/07 07:14:24;;;;;;;2.63;2.63;;;25.10;97.80;;;;;;4893263;29;20562;-72
2022/08/07 07:16:52;;;;;;;2.50;2.50;;;25.10;96.90;;;;;;4881111;29;20504;-72
2022/08/07 07:19:25;;;;;;;2.43;2.33;;;24.90;97.20;;;;;;4895436;29;21046;-72
2022/08/07 07:21:53;;;;;;;2.70;2.60;;;25.10;97.30;;;;;;4895764;29;20963;-71
2022/08/07 07:24:21;;;;;;;3.00;2.90;;;25.30;96.80;;;;;;4900339;29;20463;-72
2022/08/07 07:26:51;;;;;;;3.00;2.90;;;25.60;96.30;;;;;;4900565;29;20500;-72
2022/08/07 07:29:23;;;;;;;3.20;3.00;;;25.90;95.80;;;;;;4895812;29;20491;-72
2022/08/07 07:31:54;;;;;;;2.70;2.70;;;25.90;95.60;;;;;;4888875;29;20485;-72
2022/08/07 07:34:25;;;;;;;3.40;3.30;;;25.80;95.30;;;;;;4895846;29;20469;-72
2022/08/07 07:36:53;;;;;;;3.57;3.40;;;25.40;94.70;;;;;;4889369;29;20493;-71
2022/08/07 07:39:23;;;;;;;3.00;3.00;;;25.10;96.00;;;;;;4893216;29;20500;-72
2022/08/07 07:41:51;;;;;;;4.10;3.80;;;24.60;96.30;;;;;;4893023;29;20531;-72
2022/08/07 07:44:20;;;;;;;3.40;3.30;;;24.00;96.10;;;;;;4893595;29;20476;-73
2022/08/07 07:46:49;;;;;;;3.43;3.30;;;23.60;97.60;;;;;;4892705;29;21005;-71
2022/08/07 07:49:18;;;;;;;4.07;3.60;;;23.30;98.50;;;;;;4891543;29;20500;-72
2022/08/07 07:51:48;;;;;;;3.53;3.33;;;23.10;99.20;;;;;;4892524;29;21609;-72
2022/08/07 07:54:18;;;;;;;3.30;3.30;;;22.90;99.60;;;;;;4890714;29;20478;-72
2022/08/07 07:56:47;;;;;;;3.80;3.53;;;22.80;99.90;;;;;;4885788;29;20497;-72
2022/08/07 07:59:15;;;;;;;4.07;3.87;;;22.70;99.90;;;;;;4885547;29;20480;-73
2022/08/07 08:01:45;;;;;;;4.07;3.60;;;22.60;99.90;;;;;;4885173;29;20477;-73
2022/08/07 08:04:13;;;;;;;3.97;3.67;;;22.40;99.40;;;;;;4895526;29;20548;-72
2022/08/07 08:06:43;;;;;;;4.57;4.30;;;22.30;99.50;;;;;;4884012;29;21224;-72
2022/08/07 08:09:10;;;;;;;3.80;3.60;;;22.10;98.80;;;;;;4883387;29;20997;-72
2022/08/07 08:11:38;;;;;;;4.40;4.00;;;22.00;99.50;;;;;;4883999;29;20890;-72
2022/08/07 08:14:06;;;;;;;4.90;4.70;;;21.70;99.90;;;;;;4886914;29;20476;-72
2022/08/07 08:16:34;;;;;;;3.70;3.40;;;21.70;99.90;;;;;;4884852;29;20504;-72
2022/08/07 08:19:03;;;;;;;4.10;3.80;;;21.70;99.90;;;;;;4883767;29;20525;-71
2022/08/07 08:27:08;;;;;;;3.97;3.67;;;21.50;95.80;;;;;;4886387;29;20490;-73
2022/08/07 08:29:40;;;;;;;3.10;2.90;;;21.40;95.60;;;;;;4887183;29;20511;-71
2022/08/07 08:32:11;;;;;;;3.70;3.50;;;21.30;97.20;;;;;;4885168;29;20534;-73
2022/08/07 08:34:39;;;;;;;4.07;3.80;;;21.30;98.50;;;;;;4885614;29;20466;-71
2022/08/07 08:37:11;;;;;;;4.00;3.87;;;21.30;99.50;;;;;;4886008;29;20551;-73
2022/08/07 08:39:40;;;;;;;3.90;3.60;;;21.20;99.90;;;;;;4885823;29;20479;-73
2022/08/07 08:42:18;;;;;;;4.40;3.40;;;21.20;99.90;;;;;;4884623;29;20991;-73
2022/08/07 08:44:52;;;;;;;3.90;3.60;;;21.10;99.90;;;;;;4884365;29;20474;-73
2022/08/07 08:47:26;;;;;;;4.13;3.80;;;21.20;99.90;;;;;;4884272;29;20499;-74
2022/08/07 08:50:01;;;;;;;4.67;4.37;;;21.20;99.90;;;;;;4887147;29;20587;-71
2022/08/07 08:52:33;;;;;;;4.03;3.83;;;21.20;99.90;;;;;;4888534;29;20479;-70
2022/08/07 08:55:07;;;;;;;4.33;4.03;;;21.10;99.90;;;;;;4882337;29;20542;-73
2022/08/07 08:57:38;;;;;;;4.40;4.30;;;21.00;99.90;;;;;;4890473;29;20510;-70
2022/08/07 09:00:09;;;;;;;4.40;4.07;;;21.00;99.90;;;;;;4893484;29;20468;-71
2022/08/07 09:02:44;;;;;;;4.80;4.50;;;21.00;99.90;;;;;;4890520;29;20482;-72
2022/08/07 09:05:25;;;;;;;4.30;3.93;;;21.00;99.90;;;;;;4884062;29;21071;-71
2022/08/07 09:08:02;;;;;;;4.00;3.80;;;20.80;99.90;;;;;;4884803;29;20500;-71
2022/08/07 09:10:36;;;;;;;5.80;4.67;;;20.90;99.90;;;;;;4882906;29;20468;-71
2022/08/07 09:13:09;;;;;;;4.20;4.00;;;21.00;99.90;;;;;;4886534;29;20476;-71
2022/08/07 09:15:47;;;;;;;4.10;3.90;;;21.00;99.90;;;;;;4884808;29;20583;-71
2022/08/07 09:18:26;;;;;;;3.70;3.50;;;21.10;99.90;;;;;;4882470;29;20546;-71
2022/08/07 09:21:01;;;;;;;4.10;3.80;;;21.10;99.30;;;;;;4884435;29;20472;-72
2022/08/07 09:23:41;;;;;;;4.00;3.70;;;20.90;99.60;;;;;;4887729;29;20531;-71
2022/08/07 09:26:18;;;;;;;3.93;3.83;;;20.90;99.90;;;;;;4890687;29;20893;-71
2022/08/07 09:28:51;;;;;;;3.70;3.53;;;21.00;99.90;;;;;;4894040;29;20809;-71
2022/08/07 09:31:31;;;;;;;4.23;4.03;;;21.10;99.90;;;;;;4890914;29;20479;-72
2022/08/07 09:34:10;;;;;;;3.90;3.70;;;21.20;99.80;;;;;;4892638;29;20482;-72
2022/08/07 09:36:43;;;;;;;4.10;3.77;;;21.20;99.90;;;;;;4890044;29;20656;-72
2022/08/07 09:39:30;;;;;;;3.67;3.57;;;21.20;99.90;;;;;;4887089;29;20533;-73
2022/08/07 09:42:05;;;;;;;4.07;3.77;;;21.30;99.90;;;;;;4892180;29;20473;-72
2022/08/07 09:44:43;;;;;;;3.90;3.77;;;21.40;99.90;;;;;;4892503;29;20484;-72
2022/08/07 09:47:22;;;;;;;4.30;4.00;;;21.40;99.90;;;;;;4893990;29;20495;-72
2022/08/07 09:49:59;;;;;;;3.53;3.43;;;21.50;99.90;;;;;;4889194;29;20502;-73
2022/08/07 09:52:34;;;;;;;4.33;4.13;;;21.60;98.30;;;;;;4893428;29;20833;-72
2022/08/07 09:55:07;;;;;;;3.97;3.77;;;21.60;99.10;;;;;;4890795;29;20508;-72
2022/08/07 09:58:07;;;;;;;3.47;3.37;;;21.60;98.80;;;;;;4889835;29;20507;-72
2022/08/07 10:00:55;;;;;;;3.87;3.77;;;21.50;98.00;;;;;;4889439;29;20475;-72
2022/08/07 10:03:50;;;;;;;3.60;3.50;;;21.50;98.20;;;;;;4891547;29;20477;-71
2022/08/07 10:06:32;;;;;;;3.33;3.20;;;21.50;98.60;;;;;;4882740;29;20492;-72
2022/08/07 10:09:13;;;;;;;3.97;3.77;;;21.60;97.70;;;;;;4889317;29;20521;-71
2022/08/07 10:12:04;;;;;;;3.10;3.00;;;21.80;98.30;;;;;;4890633;29;20495;-71
2022/08/07 10:14:51;;;;;;;3.57;3.37;;;21.90;97.10;;;;;;4894482;29;20479;-72
2022/08/07 10:17:55;;;;;;;4.20;4.00;;;22.10;96.50;;;;;;4891439;29;20492;-72
2022/08/07 10:20:32;;;;;;;3.70;3.40;;;22.30;98.00;;;;;;4856692;29;21040;-72
2022/08/07 10:23:18;;;;;;;4.53;4.27;;;22.30;98.10;;;;;;4890776;29;20792;-71
2022/08/07 10:26:01;;;;;;;4.40;4.10;;;22.20;98.60;;;;;;4920437;23;20925;-70
2022/08/07 10:28:43;;;;;;;4.17;3.97;;;22.10;98.20;;;;;;4871056;29;20471;-70
2022/08/07 10:31:29;;;;;;;3.90;3.70;;;22.00;98.10;;;;;;4872565;29;20861;-68
2022/08/07 10:34:07;;;;;;;4.13;3.93;;;21.90;98.40;;;;;;4873464;29;20470;-68
2022/08/07 10:36:48;;;;;;;4.23;3.83;;;21.70;98.70;;;;;;4874200;29;20494;-69
2022/08/07 10:39:28;;;;;;;3.60;3.40;;;21.70;99.30;;;;;;4874196;29;20462;-69
2022/08/07 10:42:06;;;;;;;3.13;3.00;;;21.60;98.80;;;;;;4876982;29;20492;-69
2022/08/07 10:44:43;;;;;;;3.77;3.57;;;21.60;97.80;;;;;;4874102;29;21007;-69
2022/08/07 10:47:20;;;;;;;3.63;3.37;;;21.70;98.00;;;;;;4873848;29;20576;-69
2022/08/07 10:49:54;;;;;;;3.87;3.67;;;21.90;97.50;;;;;;4872210;29;20935;-69
2022/08/07 10:52:36;;;;;;;3.77;3.63;;;21.90;96.60;;;;;;4874139;29;20478;-69
2022/08/07 10:55:11;;;;;;;3.97;3.77;;;22.00;95.20;;;;;;4881148;23;20513;-69
2022/08/07 10:57:46;;;;;;;3.50;3.37;;;22.10;94.70;;;;;;4868378;29;20537;-68
2022/08/07 11:00:14;;;;;;;4.17;3.97;;;22.30;95.10;;;;;;4874668;29;20620;-68
2022/08/07 11:02:49;;;;;;;4.10;3.83;;;22.40;96.10;;;;;;4870120;29;20474;-68
2022/08/07 11:05:31;;;;;;;4.23;3.93;;;22.60;97.90;;;;;;4874708;29;20616;-69
2022/08/07 11:08:10;;;;;;;3.77;3.57;;;22.70;97.40;;;;;;4875021;29;20570;-68
2022/08/07 11:10:42;;;;;;;3.00;3.00;;;22.80;97.10;;;;;;4884717;29;20486;-70
2022/08/07 11:13:17;;;;;;;4.23;3.70;;;22.90;97.60;;;;;;4890303;29;20479;-68
2022/08/07 11:15:49;;;;;;;3.57;3.47;;;22.80;97.00;;;;;;4890690;29;20895;-69
2022/08/07 11:18:21;;;;;;;3.30;3.20;;;22.70;96.80;;;;;;4882057;29;20484;-70
2022/08/07 11:20:54;;;;;;;3.80;3.63;;;22.70;97.10;;;;;;4878206;29;20471;-68
2022/08/07 11:23:31;;;;;;;3.50;3.40;;;22.70;96.70;;;;;;4874679;29;20882;-70
2022/08/07 11:26:05;;;;;;;4.33;4.03;;;22.50;96.50;;;;;;4874291;29;20616;-68
2022/08/07 11:28:38;;;;;;;3.83;3.63;;;22.40;96.40;;;;;;4877564;29;20550;-68
2022/08/07 11:31:10;;;;;;;3.90;3.80;;;22.30;97.10;;;;;;4875258;29;20471;-69
2022/08/07 11:33:44;;;;;;;3.70;3.60;;;22.30;97.10;;;;;;4877696;29;20486;-68
2022/08/07 11:36:27;;;;;;;4.23;4.03;;;22.20;96.30;;;;;;4878091;29;20820;-68
2022/08/07 11:39:05;;;;;;;4.03;3.83;;;22.20;96.40;;;;;;4874627;29;20953;-68
2022/08/07 11:41:42;;;;;;;3.90;3.60;;;22.30;96.60;;;;;;4877572;29;20473;-69
2022/08/07 11:44:16;;;;;;;4.80;3.90;;;22.30;96.50;;;;;;4876808;29;20486;-69
2022/08/07 11:46:52;;;;;;;3.60;3.50;;;22.40;96.80;;;;;;4871762;29;20566;-69
2022/08/07 11:49:36;;;;;;;3.33;3.23;;;22.30;96.40;;;;;;4876839;29;20544;-69
2022/08/07 11:52:19;;;;;;;3.47;3.37;;;22.20;96.90;;;;;;4878729;29;20474;-69
2022/08/07 11:55:01;;;;;;;3.40;3.30;;;22.20;96.40;;;;;;4875314;29;20579;-69
2022/08/07 11:57:32;;;;;;;3.63;3.50;;;22.20;96.30;;;;;;4877066;29;20474;-69
2022/08/07 12:00:08;;;;;;;4.60;4.40;;;22.20;96.00;;;;;;4877282;29;20557;-69
2022/08/07 12:03:21;;;;;;;4.00;3.80;;;22.20;95.50;;;;;;4877011;29;20995;-69
2022/08/07 12:05:58;;;;;;;3.80;3.60;;;22.30;96.30;;;;;;4874492;29;20558;-68
2022/08/07 12:08:31;;;;;;;4.37;4.07;;;22.30;95.70;;;;;;4879361;29;20530;-68
2022/08/07 12:11:06;;;;;;;3.57;3.47;;;22.40;95.70;;;;;;4877485;29;20501;-68
2022/08/07 12:13:41;;;;;;;3.60;3.50;;;22.40;95.90;;;;;;4883331;29;20589;-68
2022/08/07 12:16:15;;;;;;;4.23;4.00;;;22.40;95.60;;;;;;4873735;29;20499;-68
2022/08/07 12:18:48;;;;;;;3.40;3.27;;;22.50;95.30;;;;;;4879313;29;20467;-70
2022/08/07 12:21:26;;;;;;;4.70;4.40;;;22.50;95.90;;;;;;4886822;29;20470;-69
2022/08/07 12:24:01;;;;;;;3.90;3.70;;;22.50;95.60;;;;;;4873481;29;20500;-68
2022/08/07 12:26:38;;;;;;;4.10;3.80;;;22.60;95.00;;;;;;4873883;29;20501;-68
2022/08/07 12:29:11;;;;;;;3.63;3.43;;;22.80;94.90;;;;;;4875047;29;20963;-68
2022/08/07 12:31:42;;;;;;;3.97;3.77;;;22.90;94.90;;;;;;4876571;29;20835;-68
2022/08/07 12:34:10;;;;;;;3.77;3.57;;;23.10;94.40;;;;;;4875069;29;20498;-68
2022/08/07 12:36:38;;;;;;;4.00;3.80;;;23.10;94.10;;;;;;4876023;29;20852;-68
2022/08/07 12:39:06;;;;;;;4.33;4.03;;;23.20;94.30;;;;;;4875490;29;20474;-68
2022/08/07 12:41:37;;;;;;;4.10;3.90;;;23.20;94.50;;;;;;4875758;29;20478;-68
2022/08/07 12:44:06;;;;;;;3.83;3.63;;;23.10;93.40;;;;;;4875108;29;20571;-68
2022/08/07 12:46:54;;;;;;;3.40;3.27;;;23.00;93.60;;;;;;4876824;29;20501;-68
2022/08/07 12:49:28;;;;;;;4.17;3.77;;;23.00;93.60;;;;;;4870626;29;20631;-68
2022/08/07 12:52:04;;;;;;;3.60;3.50;;;22.80;93.80;;;;;;4876154;29;20494;-68
2022/08/07 12:54:36;;;;;;;3.70;3.50;;;22.80;93.90;;;;;;4872867;29;20494;-68
2022/08/07 12:57:05;;;;;;;4.10;3.97;;;22.80;94.00;;;;;;4873186;29;20493;-69
2022/08/07 12:59:35;;;;;;;3.10;2.90;;;22.70;93.90;;;;;;4873805;29;20586;-69
2022/08/07 13:02:25;;;;;;;3.03;2.83;;;22.60;93.70;;;;;;4871854;29;20478;-69
2022/08/07 13:05:09;;;;;;;3.20;3.00;;;22.70;94.70;;;;;;4869337;29;20570;-69
2022/08/07 13:08:01;;;;;;;3.10;3.00;;;22.90;95.20;;;;;;4876037;29;20546;-69
2022/08/07 13:10:46;;;;;;;2.97;2.87;;;22.90;94.60;;;;;;4873539;29;20848;-69
2022/08/07 13:13:35;;;;;;;3.20;3.00;;;23.10;94.40;;;;;;4877041;29;20483;-69
2022/08/07 13:16:10;;;;;;;3.20;3.10;;;23.20;94.00;;;;;;4870167;29;20543;-68
2022/08/07 13:18:53;;;;;;;3.03;2.70;;;23.20;94.10;;;;;;4876205;29;20458;-69
2022/08/07 13:21:25;;;;;;;3.37;3.27;;;23.10;93.10;;;;;;4870379;29;20467;-68
2022/08/07 13:24:00;;;;;;;3.23;3.13;;;23.00;92.80;;;;;;4874609;29;21047;-68
2022/08/07 13:26:32;;;;;;;2.90;2.80;;;23.00;93.20;;;;;;4873077;29;20521;-68
2022/08/07 13:29:09;;;;;;;3.10;2.87;;;23.10;93.20;;;;;;4875767;29;20964;-68
2022/08/07 13:31:41;;;;;;;3.70;3.60;;;23.20;93.00;;;;;;4874724;29;21008;-68
2022/08/07 13:34:20;;;;;;;3.27;3.17;;;23.20;92.80;;;;;;4876270;29;20470;-69
2022/08/07 13:36:51;;;;;;;3.43;3.20;;;23.10;93.30;;;;;;4873707;29;21021;-68
2022/08/07 13:39:28;;;;;;;3.80;3.67;;;23.20;92.90;;;;;;4874395;29;20559;-68
2022/08/07 13:41:57;;;;;;;3.53;3.40;;;23.30;93.10;;;;;;4876681;29;20478;-68
2022/08/07 13:44:30;;;;;;;3.93;3.63;;;23.40;93.20;;;;;;4874886;29;20538;-68
2022/08/07 13:46:59;;;;;;;3.23;3.03;;;23.50;92.30;;;;;;4872837;29;20551;-69
2022/08/07 13:49:33;;;;;;;4.93;3.40;;;23.50;91.70;;;;;;4875350;29;20479;-68
2022/08/07 13:52:04;;;;;;;3.60;3.50;;;23.60;92.00;;;;;;4875220;29;20546;-68
2022/08/07 13:54:32;;;;;;;3.20;3.07;;;23.60;91.70;;;;;;4875164;29;20836;-68
2022/08/07 13:57:01;;;;;;;3.00;2.87;;;23.80;91.80;;;;;;4874161;29;20501;-68
2022/08/07 13:59:32;;;;;;;3.47;3.17;;;23.90;91.60;;;;;;4874254;29;20539;-68
2022/08/07 14:02:06;;;;;;;3.13;3.03;;;24.00;90.90;;;;;;4875402;29;20476;-69
2022/08/07 14:04:44;;;;;;;3.77;3.47;;;24.00;91.20;;;;;;4874444;29;20844;-69
2022/08/07 14:07:11;;;;;;;3.03;3.00;;;23.90;91.00;;;;;;4875118;29;20525;-69
2022/08/07 14:09:41;;;;;;;3.40;3.20;;;23.80;91.00;;;;;;4874049;29;20498;-69
2022/08/07 14:12:17;;;;;;;3.30;3.23;;;23.60;90.90;;;;;;4876305;29;20502;-69
2022/08/07 14:14:52;;;;;;;3.30;3.20;;;23.60;91.10;;;;;;4866958;29;20823;-69
2022/08/07 14:17:23;;;;;;;2.90;2.90;;;23.60;91.30;;;;;;4873308;29;20542;-69
2022/08/07 14:19:55;;;;;;;3.00;2.90;;;23.50;90.80;;;;;;4872424;29;20469;-70
2022/08/07 14:22:26;;;;;;;3.20;3.10;;;23.40;91.00;;;;;;4873242;29;20471;-69
2022/08/07 14:24:59;;;;;;;3.50;3.33;;;23.60;91.80;;;;;;4873768;29;20475;-69
2022/08/07 14:27:33;;;;;;;3.20;3.10;;;23.60;91.10;;;;;;4879072;29;20466;-69
2022/08/07 14:30:06;;;;;;;3.30;3.13;;;23.60;91.10;;;;;;4877270;29;20520;-69
2022/08/07 14:32:41;;;;;;;3.73;3.30;;;23.50;91.40;;;;;;4876778;29;20818;-69
2022/08/07 14:35:10;;;;;;;2.90;2.80;;;23.40;90.80;;;;;;4877694;29;20482;-69
2022/08/07 14:37:38;;;;;;;2.93;2.83;;;23.30;90.80;;;;;;4879354;29;20467;-69
2022/08/07 14:40:12;;;;;;;3.30;3.20;;;23.30;90.90;;;;;;4874761;29;20474;-70
2022/08/07 14:42:39;;;;;;;3.10;3.00;;;23.20;90.60;;;;;;4877195;29;20690;-69
2022/08/07 14:45:11;;;;;;;4.07;3.87;;;23.20;91.40;;;;;;4878799;29;20473;-69
2022/08/07 14:47:40;;;;;;;3.40;3.30;;;23.10;92.40;;;;;;4877838;29;20473;-69
2022/08/07 14:50:09;;;;;;;3.63;3.43;;;23.00;92.40;;;;;;4874869;29;21000;-70
2022/08/07 14:52:37;;;;;;;6.47;3.40;;;22.90;92.60;;;;;;4877438;29;20475;-70
2022/08/07 14:55:05;;;;;;;3.80;3.60;;;22.90;93.30;;;;;;4877728;29;21184;-70
2022/08/07 14:57:35;;;;;;;3.67;3.57;;;22.80;93.50;;;;;;4877527;29;20577;-69
2022/08/07 15:00:04;;;;;;;3.63;3.43;;;22.80;93.10;;;;;;4877638;29;20474;-70
2022/08/07 15:02:35;;;;;;;3.43;3.27;;;22.70;93.60;;;;;;4878566;29;20481;-71
2022/08/07 15:05:03;;;;;;;3.30;3.20;;;22.70;93.00;;;;;;4877560;29;20473;-71
2022/08/07 15:07:31;;;;;;;3.30;3.10;;;22.70;93.40;;;;;;4877408;29;20490;-71
2022/08/07 15:09:58;;;;;;;4.13;3.97;;;22.70;93.10;;;;;;4875364;29;21055;-71
2022/08/07 15:12:31;;;;;;;4.00;3.80;;;22.70;93.40;;;;;;4873973;29;21479;-72
2022/08/07 15:15:03;;;;;;;4.60;3.33;;;22.60;93.90;;;;;;4873127;29;20482;-71
2022/08/07 15:17:34;;;;;;;3.63;3.40;;;22.50;93.60;;;;;;4873212;29;20601;-70
2022/08/07 15:20:04;;;;;;;3.90;3.73;;;22.50;94.10;;;;;;4869925;29;20552;-72
2022/08/07 15:22:41;;;;;;;4.37;3.97;;;22.50;94.70;;;;;;4876415;29;20654;-70
2022/08/07 15:25:14;;;;;;;3.40;3.20;;;22.60;94.10;;;;;;4876842;29;20829;-71
2022/08/07 15:27:42;;;;;;;3.70;3.60;;;22.60;93.90;;;;;;4877595;29;20574;-72
2022/08/07 15:30:11;;;;;;;3.07;2.97;;;22.70;94.10;;;;;;4874514;29;20514;-71
2022/08/07 15:32:43;;;;;;;4.47;3.90;;;22.80;94.00;;;;;;4876320;29;20477;-70
2022/08/07 15:35:15;;;;;;;3.67;3.47;;;22.90;94.00;;;;;;4877692;29;20505;-70
2022/08/07 15:37:43;;;;;;;3.43;3.33;;;23.00;93.60;;;;;;4868970;29;20473;-70
2022/08/07 15:40:15;;;;;;;4.17;3.97;;;22.90;93.50;;;;;;4875070;29;20476;-70
2022/08/07 15:42:54;;;;;;;3.30;3.20;;;22.80;93.60;;;;;;4872803;29;20636;-70
2022/08/07 15:45:31;;;;;;;3.60;3.40;;;22.90;93.60;;;;;;4874595;29;20490;-70
2022/08/07 15:48:05;;;;;;;4.00;3.70;;;22.90;93.90;;;;;;4876175;29;20478;-70
2022/08/07 15:50:36;;;;;;;4.37;4.00;;;22.90;94.00;;;;;;4875325;29;21014;-70
2022/08/07 15:53:09;;;;;;;3.30;3.20;;;23.10;94.30;;;;;;4875701;29;20469;-69
2022/08/07 15:55:37;;;;;;;3.70;3.60;;;23.10;93.60;;;;;;4876634;29;20498;-69
2022/08/07 15:58:04;;;;;;;4.13;3.93;;;23.00;93.40;;;;;;4872286;29;20490;-70
2022/08/07 16:00:36;;;;;;;3.70;3.50;;;23.00;93.50;;;;;;4876126;29;20916;-70
2022/08/07 16:03:09;;;;;;;4.43;4.20;;;23.10;93.60;;;;;;4875719;29;20958;-69
2022/08/07 16:05:37;;;;;;;3.77;3.57;;;23.10;93.40;;;;;;4875893;29;20808;-70
2022/08/07 16:08:09;;;;;;;3.50;3.27;;;23.20;94.00;;;;;;4872866;29;20956;-70
2022/08/07 16:10:38;;;;;;;3.37;3.27;;;23.20;93.40;;;;;;4876558;29;20537;-70
2022/08/07 16:13:31;;;;;;;3.93;3.83;;;23.30;93.70;;;;;;4874581;29;20530;-70
2022/08/07 16:16:05;;;;;;;3.40;3.30;;;23.40;93.00;;;;;;4875407;29;20531;-69
2022/08/07 16:18:48;;;;;;;3.90;3.70;;;23.40;92.70;;;;;;4874532;29;20943;-70
2022/08/07 16:21:20;;;;;;;3.67;3.57;;;23.40;92.80;;;;;;4876755;29;20478;-70
2022/08/07 16:24:02;;;;;;;3.53;3.43;;;23.40;92.40;;;;;;4874895;29;20474;-69
2022/08/07 16:26:41;;;;;;;4.20;3.90;;;23.40;92.30;;;;;;4876619;29;20599;-70
2022/08/07 16:29:21;;;;;;;4.10;3.90;;;23.40;93.10;;;;;;4873593;29;20473;-68
2022/08/07 16:31:57;;;;;;;4.10;3.77;;;23.50;92.40;;;;;;4869639;29;20493;-70
2022/08/07 16:34:33;;;;;;;4.07;3.97;;;23.50;92.40;;;;;;4875316;29;21035;-69
2022/08/07 16:37:29;;;;;;;4.33;4.13;;;23.50;92.60;;;;;;4876585;29;20576;-70
2022/08/07 16:40:37;;;;;;;3.63;3.47;;;23.50;92.40;;;;;;4874451;29;20592;-69
2022/08/07 16:43:12;;;;;;;4.23;4.00;;;23.40;92.50;;;;;;4875216;29;20960;-70
2022/08/07 16:45:54;;;;;;;3.30;3.17;;;23.40;92.90;;;;;;4868367;29;20552;-70
2022/08/07 16:48:52;;;;;;;4.17;3.97;;;23.40;92.40;;;;;;4873906;29;20851;-69
2022/08/07 16:51:33;;;;;;;4.20;4.00;;;23.40;92.30;;;;;;4874761;29;20532;-69
2022/08/07 16:54:37;;;;;;;3.40;3.30;;;23.40;92.70;;;;;;4876824;29;20484;-69
2022/08/07 16:57:19;;;;;;;3.80;3.60;;;23.40;92.50;;;;;;4861842;29;20552;-69
2022/08/07 16:59:54;;;;;;;3.57;3.40;;;23.40;92.80;;;;;;4871532;29;20473;-69
2022/08/07 17:02:37;;;;;;;4.27;3.87;;;23.40;92.70;;;;;;4874702;29;20464;-69
2022/08/07 17:05:38;;;;;;;3.70;3.60;;;23.30;92.70;;;;;;4875604;29;20506;-69
2022/08/07 17:08:06;;;;;;;3.73;3.63;;;23.30;92.90;;;;;;4874329;29;20473;-69
2022/08/07 17:10:40;;;;;;;4.50;4.20;;;23.20;92.60;;;;;;4874815;29;20506;-69
2022/08/07 17:13:36;;;;;;;4.57;4.37;;;23.20;92.70;;;;;;4874044;29;20480;-69
2022/08/07 17:16:08;;;;;;;4.20;4.10;;;23.20;93.10;;;;;;4870793;29;20497;-70
2022/08/07 17:18:42;;;;;;;3.77;3.57;;;23.10;92.60;;;;;;4873655;29;20474;-70
2022/08/07 17:21:14;;;;;;;4.03;3.83;;;23.10;92.90;;;;;;4874221;29;21043;-69
2022/08/07 17:23:50;;;;;;;4.90;4.60;;;23.10;93.20;;;;;;4875530;29;20478;-69
2022/08/07 17:26:23;;;;;;;3.90;3.80;;;23.00;93.40;;;;;;4873744;29;20558;-69